sensor_id;sensor_type;location;lat;lon;timestamp;pressure;altitude;pressure_sealevel;temperature;humidity
61573;BME280;47465;43.094;12.434;2023-03-16T00:02:20;98807.94;;;4.22;94.92
61573;BME280;47465;43.094;12.434;2023-03-16T00:04:46;98801.78;;;4.46;92.01
61573;BME280;47465;43.094;12.434;2023-03-16T00:07:12;98780.69;;;4.53;89.57
61573;BME280;47465;43.094;12.434;2023-03-16T00:09:39;98774.53;;;4.55;90.24
61573;BME280;47465;43.094;12.434;2023-03-16T00:12:06;98797.34;;;4.59;90.41
61573;BME280;47465;43.094;12.434;2023-03-16T00:14:40;98804.41;;;4.41;90.84
61573;BME280;47465;43.094;12.434;2023-03-16T00:17:09;98791.28;;;4.21;92.39
61573;BME280;47465;43.094;12.434;2023-03-16T00:19:36;98786.91;;;3.96;93.31
61573;BME280;47465;43.094;12.434;2023-03-16T00:22:02;98797.44;;;3.94;94.05
61573;BME280;47465;43.094;12.434;2023-03-16T00:24:28;98815.00;;;3.95;94.37
61573;BME280;47465;43.094;12.434;2023-03-16T00:26:54;98787.78;;;3.95;93.52
61573;BME280;47465;43.094;12.434;2023-03-16T00:29:20;98800.94;;;3.98;92.86
61573;BME280;47465;43.094;12.434;2023-03-16T00:31:47;98793.91;;;3.77;94.10
61573;BME280;47465;43.094;12.434;2023-03-16T00:34:13;98820.25;;;3.84;94.93
61573;BME280;47465;43.094;12.434;2023-03-16T00:36:41;98814.97;;;3.86;93.50
61573;BME280;47465;43.094;12.434;2023-03-16T00:39:07;98794.78;;;4.25;88.33
61573;BME280;47465;43.094;12.434;2023-03-16T00:41:36;98804.34;;;4.72;85.66
61573;BME280;47465;43.094;12.434;2023-03-16T00:44:03;98816.56;;;4.98;83.23
61573;BME280;47465;43.094;12.434;2023-03-16T00:46:29;98791.13;;;4.86;82.84
61573;BME280;47465;43.094;12.434;2023-03-16T00:48:57;98797.22;;;5.00;81.10
61573;BME280;47465;43.094;12.434;2023-03-16T00:51:23;98808.66;;;4.99;81.45
61573;BME280;47465;43.094;12.434;2023-03-16T00:53:50;98786.72;;;4.92;80.25
61573;BME280;47465;43.094;12.434;2023-03-16T00:56:16;98803.34;;;5.04;79.90
61573;BME280;47465;43.094;12.434;2023-03-16T00:58:42;98812.03;;;5.26;78.47
61573;BME280;47465;43.094;12.434;2023-03-16T01:01:10;98798.91;;;5.15;77.70
61573;BME280;47465;43.094;12.434;2023-03-16T01:03:38;98795.38;;;5.16;77.47
61573;BME280;47465;43.094;12.434;2023-03-16T01:06:05;98802.31;;;5.32;76.71
61573;BME280;47465;43.094;12.434;2023-03-16T01:08:32;98779.56;;;5.21;76.53
61573;BME280;47465;43.094;12.434;2023-03-16T01:11:02;98786.59;;;5.17;76.59
61573;BME280;47465;43.094;12.434;2023-03-16T01:13:29;98772.63;;;5.01;77.50
61573;BME280;47465;43.094;12.434;2023-03-16T01:15:55;98783.97;;;5.12;76.67
61573;BME280;47465;43.094;12.434;2023-03-16T01:18:20;98776.09;;;5.08;77.07
61573;BME280;47465;43.094;12.434;2023-03-16T01:20:47;98775.25;;;5.01;76.58
61573;BME280;47465;43.094;12.434;2023-03-16T01:23:15;98785.75;;;5.07;76.85
61573;BME280;47465;43.094;12.434;2023-03-16T01:25:41;98790.13;;;5.11;76.69
61573;BME280;47465;43.094;12.434;2023-03-16T01:28:09;98770.00;;;5.00;76.64
61573;BME280;47465;43.094;12.434;2023-03-16T01:30:35;98784.03;;;5.03;77.00
61573;BME280;47465;43.094;12.434;2023-03-16T01:33:01;98782.28;;;5.05;76.58
61573;BME280;47465;43.094;12.434;2023-03-16T01:35:27;98769.97;;;5.04;75.61
61573;BME280;47465;43.094;12.434;2023-03-16T01:37:53;98758.56;;;5.04;75.02
61573;BME280;47465;43.094;12.434;2023-03-16T01:40:19;98766.41;;;5.11;74.43
61573;BME280;47465;43.094;12.434;2023-03-16T01:42:46;98768.16;;;5.09;73.66
61573;BME280;47465;43.094;12.434;2023-03-16T01:48:19;98774.34;;;5.04;74.44
61573;BME280;47465;43.094;12.434;2023-03-16T01:50:46;98774.34;;;5.02;73.95
61573;BME280;47465;43.094;12.434;2023-03-16T01:53:12;98763.00;;;4.92;73.96
61573;BME280;47465;43.094;12.434;2023-03-16T01:55:40;98765.63;;;4.88;74.85
61573;BME280;47465;43.094;12.434;2023-03-16T01:58:06;98757.81;;;4.68;75.62
61573;BME280;47465;43.094;12.434;2023-03-16T02:00:32;98785.91;;;4.72;76.76
61573;BME280;47465;43.094;12.434;2023-03-16T02:03:03;98761.41;;;4.47;78.10
61573;BME280;47465;43.094;12.434;2023-03-16T02:05:36;98767.56;;;4.33;77.66
61573;BME280;47465;43.094;12.434;2023-03-16T02:08:04;98793.81;;;4.69;76.12
61573;BME280;47465;43.094;12.434;2023-03-16T02:10:31;98790.25;;;4.81;74.35
61573;BME280;47465;43.094;12.434;2023-03-16T02:12:58;98782.41;;;4.71;75.15
61573;BME280;47465;43.094;12.434;2023-03-16T02:15:24;98781.63;;;4.34;79.66
61573;BME280;47465;43.094;12.434;2023-03-16T02:17:51;98796.56;;;3.84;82.95
61573;BME280;47465;43.094;12.434;2023-03-16T02:20:24;98778.13;;;3.43;85.85
61573;BME280;47465;43.094;12.434;2023-03-16T02:22:58;98775.50;;;3.47;83.16
61573;BME280;47465;43.094;12.434;2023-03-16T02:25:29;98795.69;;;4.21;77.60
61573;BME280;47465;43.094;12.434;2023-03-16T02:28:03;98773.72;;;4.26;76.32
61573;BME280;47465;43.094;12.434;2023-03-16T02:30:34;98785.06;;;4.56;74.22
61573;BME280;47465;43.094;12.434;2023-03-16T02:33:01;98762.25;;;4.50;72.08
61573;BME280;47465;43.094;12.434;2023-03-16T02:35:29;98792.06;;;4.69;71.76
61573;BME280;47465;43.094;12.434;2023-03-16T02:37:55;98768.44;;;4.37;74.21
61573;BME280;47465;43.094;12.434;2023-03-16T02:40:23;98788.63;;;4.47;71.88
61573;BME280;47465;43.094;12.434;2023-03-16T02:42:53;98787.72;;;4.50;70.96
61573;BME280;47465;43.094;12.434;2023-03-16T02:45:21;98765.75;;;4.60;69.30
61573;BME280;47465;43.094;12.434;2023-03-16T02:47:50;98774.53;;;4.61;69.38
61573;BME280;47465;43.094;12.434;2023-03-16T02:50:18;98761.41;;;4.51;69.38
61573;BME280;47465;43.094;12.434;2023-03-16T02:52:44;98789.44;;;4.65;68.57
61573;BME280;47465;43.094;12.434;2023-03-16T02:55:09;98788.56;;;4.60;68.02
61573;BME280;47465;43.094;12.434;2023-03-16T02:57:35;98796.44;;;4.72;67.55
61573;BME280;47465;43.094;12.434;2023-03-16T03:00:02;98782.38;;;4.70;66.41
61573;BME280;47465;43.094;12.434;2023-03-16T03:02:35;98753.47;;;4.53;67.15
61573;BME280;47465;43.094;12.434;2023-03-16T03:05:03;98786.81;;;4.65;66.42
61573;BME280;47465;43.094;12.434;2023-03-16T03:07:29;98785.06;;;4.68;66.56
61573;BME280;47465;43.094;12.434;2023-03-16T03:09:57;98773.63;;;4.65;65.60
61573;BME280;47465;43.094;12.434;2023-03-16T03:12:23;98749.09;;;4.52;66.31
61573;BME280;47465;43.094;12.434;2023-03-16T03:14:48;98753.53;;;4.39;66.30
61573;BME280;47465;43.094;12.434;2023-03-16T03:17:14;98775.44;;;4.53;65.37
61573;BME280;47465;43.094;12.434;2023-03-16T03:19:40;98776.28;;;4.57;64.60
61573;BME280;47465;43.094;12.434;2023-03-16T03:22:08;98765.75;;;4.52;64.75
61573;BME280;47465;43.094;12.434;2023-03-16T03:24:34;98757.03;;;4.43;64.93
61573;BME280;47465;43.094;12.434;2023-03-16T03:27:00;98783.34;;;4.49;64.74
61573;BME280;47465;43.094;12.434;2023-03-16T03:29:30;98768.44;;;4.36;65.04
61573;BME280;47465;43.094;12.434;2023-03-16T03:31:59;98775.47;;;4.35;65.40
61573;BME280;47465;43.094;12.434;2023-03-16T03:34:25;98795.63;;;4.51;64.08
61573;BME280;47465;43.094;12.434;2023-03-16T03:36:51;98791.25;;;4.43;64.51
61573;BME280;47465;43.094;12.434;2023-03-16T03:39:19;98810.53;;;4.46;64.27
61573;BME280;47465;43.094;12.434;2023-03-16T03:41:45;98784.25;;;4.39;64.68
61573;BME280;47465;43.094;12.434;2023-03-16T03:44:11;98795.66;;;4.35;64.73
61573;BME280;47465;43.094;12.434;2023-03-16T03:46:37;98808.81;;;4.47;63.72
61573;BME280;47465;43.094;12.434;2023-03-16T03:49:03;98803.53;;;4.38;64.16
61573;BME280;47465;43.094;12.434;2023-03-16T03:51:29;98797.41;;;4.36;63.35
61573;BME280;47465;43.094;12.434;2023-03-16T03:53:55;98813.19;;;4.42;62.41
61573;BME280;47465;43.094;12.434;2023-03-16T03:56:23;98789.53;;;4.19;62.97
61573;BME280;47465;43.094;12.434;2023-03-16T03:58:49;98816.69;;;4.39;62.72
61573;BME280;47465;43.094;12.434;2023-03-16T04:01:15;98804.41;;;4.33;62.64
61573;BME280;47465;43.094;12.434;2023-03-16T04:03:41;98793.03;;;4.25;61.64
61573;BME280;47465;43.094;12.434;2023-03-16T04:06:07;98828.97;;;4.36;62.64
61573;BME280;47465;43.094;12.434;2023-03-16T04:08:34;98829.00;;;4.22;64.06
61573;BME280;47465;43.094;12.434;2023-03-16T04:11:00;98808.84;;;4.02;63.65
61573;BME280;47465;43.094;12.434;2023-03-16T04:13:27;98816.75;;;3.98;63.62
61573;BME280;47465;43.094;12.434;2023-03-16T04:15:55;98799.19;;;3.92;63.48
61573;BME280;47465;43.094;12.434;2023-03-16T04:18:21;98829.00;;;4.00;63.96
61573;BME280;47465;43.094;12.434;2023-03-16T04:20:47;98812.34;;;4.03;62.05
61573;BME280;47465;43.094;12.434;2023-03-16T04:23:13;98826.38;;;4.16;61.41
61573;BME280;47465;43.094;12.434;2023-03-16T04:25:41;98833.38;;;4.24;61.48
61573;BME280;47465;43.094;12.434;2023-03-16T04:28:07;98824.63;;;4.19;60.99
61573;BME280;47465;43.094;12.434;2023-03-16T04:30:34;98827.25;;;4.22;60.93
61573;BME280;47465;43.094;12.434;2023-03-16T04:33:00;98825.50;;;4.21;60.58
61573;BME280;47465;43.094;12.434;2023-03-16T04:35:26;98847.44;;;4.29;60.16
61573;BME280;47465;43.094;12.434;2023-03-16T04:37:52;98822.00;;;4.01;61.36
61573;BME280;47465;43.094;12.434;2023-03-16T04:40:18;98815.88;;;4.08;59.43
61573;BME280;47465;43.094;12.434;2023-03-16T04:42:46;98828.13;;;4.21;60.23
61573;BME280;47465;43.094;12.434;2023-03-16T04:45:13;98807.94;;;4.09;60.28
61573;BME280;47465;43.094;12.434;2023-03-16T04:47:41;98843.91;;;4.24;60.69
61573;BME280;47465;43.094;12.434;2023-03-16T04:50:08;98807.09;;;4.03;60.83
61573;BME280;47465;43.094;12.434;2023-03-16T04:52:35;98822.00;;;4.10;61.96
61573;BME280;47465;43.094;12.434;2023-03-16T04:55:00;98826.38;;;4.11;61.52
61573;BME280;47465;43.094;12.434;2023-03-16T04:57:26;98845.69;;;4.28;60.34
61573;BME280;47465;43.094;12.434;2023-03-16T04:59:52;98815.84;;;4.11;61.40
61573;BME280;47465;43.094;12.434;2023-03-16T05:02:18;98814.09;;;3.98;61.43
61573;BME280;47465;43.094;12.434;2023-03-16T05:04:47;98824.63;;;3.95;64.56
61573;BME280;47465;43.094;12.434;2023-03-16T05:07:13;98838.66;;;3.94;62.08
61573;BME280;47465;43.094;12.434;2023-03-16T05:09:39;98831.63;;;3.85;63.33
61573;BME280;47465;43.094;12.434;2023-03-16T05:12:05;98834.25;;;3.73;65.81
61573;BME280;47465;43.094;12.434;2023-03-16T05:14:31;98856.16;;;3.65;68.72
61573;BME280;47465;43.094;12.434;2023-03-16T05:16:57;98835.91;;;3.31;68.99
61573;BME280;47465;43.094;12.434;2023-03-16T05:19:23;98849.16;;;3.75;63.88
61573;BME280;47465;43.094;12.434;2023-03-16T05:21:50;98834.28;;;3.85;62.67
61573;BME280;47465;43.094;12.434;2023-03-16T05:24:16;98834.28;;;4.11;60.98
61573;BME280;47465;43.094;12.434;2023-03-16T05:26:42;98850.94;;;4.28;61.68
61573;BME280;47465;43.094;12.434;2023-03-16T05:29:08;98853.59;;;4.25;61.61
61573;BME280;47465;43.094;12.434;2023-03-16T05:31:34;98859.72;;;4.21;62.97
61573;BME280;47465;43.094;12.434;2023-03-16T05:34:01;98829.03;;;3.97;61.40
61573;BME280;47465;43.094;12.434;2023-03-16T05:36:27;98858.84;;;4.21;60.89
61573;BME280;47465;43.094;12.434;2023-03-16T05:38:55;98863.22;;;4.42;60.03
61573;BME280;47465;43.094;12.434;2023-03-16T05:41:20;98845.66;;;4.38;60.77
61573;BME280;47465;43.094;12.434;2023-03-16T05:43:47;98829.00;;;4.40;60.20
61573;BME280;47465;43.094;12.434;2023-03-16T05:46:13;98852.66;;;4.57;59.74
61573;BME280;47465;43.094;12.434;2023-03-16T05:48:39;98841.25;;;4.61;59.43
61573;BME280;47465;43.094;12.434;2023-03-16T05:51:05;98864.91;;;4.77;59.35
61573;BME280;47465;43.094;12.434;2023-03-16T05:53:31;98840.38;;;4.59;59.60
61573;BME280;47465;43.094;12.434;2023-03-16T05:55:58;98871.94;;;4.78;59.61
61573;BME280;47465;43.094;12.434;2023-03-16T05:58:26;98881.59;;;4.82;59.51
61573;BME280;47465;43.094;12.434;2023-03-16T06:00:51;98849.13;;;4.73;59.70
61573;BME280;47465;43.094;12.434;2023-03-16T06:03:19;98857.03;;;4.72;60.21
61573;BME280;47465;43.094;12.434;2023-03-16T06:05:46;98855.25;;;4.76;60.04
61573;BME280;47465;43.094;12.434;2023-03-16T06:08:12;98904.41;;;5.01;60.63
61573;BME280;47465;43.094;12.434;2023-03-16T06:10:39;98871.03;;;4.85;61.94
61573;BME280;47465;43.094;12.434;2023-03-16T06:13:07;98897.34;;;5.08;59.21
61573;BME280;47465;43.094;12.434;2023-03-16T06:15:33;98896.50;;;5.01;61.94
61573;BME280;47465;43.094;12.434;2023-03-16T06:17:58;98893.84;;;5.01;60.55
61573;BME280;47465;43.094;12.434;2023-03-16T06:20:25;98886.81;;;5.02;61.08
61573;BME280;47465;43.094;12.434;2023-03-16T06:22:51;98904.38;;;5.12;62.15
61573;BME280;47465;43.094;12.434;2023-03-16T06:25:17;98902.59;;;5.14;58.67
61573;BME280;47465;43.094;12.434;2023-03-16T06:27:43;98899.00;;;5.35;58.67
61573;BME280;47465;43.094;12.434;2023-03-16T06:30:12;98920.03;;;5.52;59.28
61573;BME280;47465;43.094;12.434;2023-03-16T06:32:39;98894.56;;;5.45;57.48
61573;BME280;47465;43.094;12.434;2023-03-16T06:35:10;98897.16;;;5.52;58.29
61573;BME280;47465;43.094;12.434;2023-03-16T06:37:36;98925.19;;;5.80;56.54
61573;BME280;47465;43.094;12.434;2023-03-16T06:40:02;98903.22;;;5.73;55.94
61573;BME280;47465;43.094;12.434;2023-03-16T06:42:28;98911.94;;;5.84;57.29
61573;BME280;47465;43.094;12.434;2023-03-16T06:44:54;98912.78;;;5.91;56.11
61573;BME280;47465;43.094;12.434;2023-03-16T06:47:22;98915.41;;;6.03;55.90
61573;BME280;47465;43.094;12.434;2023-03-16T06:49:47;98939.88;;;6.25;56.91
61573;BME280;47465;43.094;12.434;2023-03-16T06:52:16;98949.53;;;6.29;57.01
61573;BME280;47465;43.094;12.434;2023-03-16T06:54:42;98932.72;;;6.40;55.89
61573;BME280;47465;43.094;12.434;2023-03-16T06:57:08;98947.56;;;6.57;56.78
61573;BME280;47465;43.094;12.434;2023-03-16T06:59:34;98935.28;;;6.50;56.57
61573;BME280;47465;43.094;12.434;2023-03-16T07:02:00;98928.16;;;6.62;57.08
61573;BME280;47465;43.094;12.434;2023-03-16T07:04:27;98921.97;;;6.64;56.95
61573;BME280;47465;43.094;12.434;2023-03-16T07:06:53;98954.38;;;6.88;57.65
61573;BME280;47465;43.094;12.434;2023-03-16T07:09:19;98942.97;;;6.78;56.96
61573;BME280;47465;43.094;12.434;2023-03-16T07:11:46;98945.44;;;6.98;57.71
61573;BME280;47465;43.094;12.434;2023-03-16T07:14:12;98931.34;;;6.97;57.46
61573;BME280;47465;43.094;12.434;2023-03-16T07:16:38;98944.28;;;7.22;57.22
61573;BME280;47465;43.094;12.434;2023-03-16T07:19:04;98952.97;;;7.36;57.36
61573;BME280;47465;43.094;12.434;2023-03-16T07:21:31;98928.22;;;7.42;57.17
61573;BME280;47465;43.094;12.434;2023-03-16T07:24:04;98965.75;;;7.76;55.21
61573;BME280;47465;43.094;12.434;2023-03-16T07:26:30;98931.59;;;7.55;55.39
61573;BME280;47465;43.094;12.434;2023-03-16T07:29:00;98922.94;;;7.42;56.47
61573;BME280;47465;43.094;12.434;2023-03-16T07:31:35;98941.16;;;7.65;56.52
61573;BME280;47465;43.094;12.434;2023-03-16T07:34:02;98942.84;;;7.72;55.52
61573;BME280;47465;43.094;12.434;2023-03-16T07:36:28;98962.25;;;7.73;56.42
61573;BME280;47465;43.094;12.434;2023-03-16T07:38:55;98962.06;;;7.87;56.03
61573;BME280;47465;43.094;12.434;2023-03-16T07:41:21;98946.16;;;7.88;55.52
61573;BME280;47465;43.094;12.434;2023-03-16T07:43:50;98936.41;;;7.92;58.07
61573;BME280;47465;43.094;12.434;2023-03-16T07:46:16;98936.03;;;8.18;56.11
61573;BME280;47465;43.094;12.434;2023-03-16T07:48:43;98949.16;;;8.26;55.27
61573;BME280;47465;43.094;12.434;2023-03-16T07:51:09;98944.81;;;8.21;54.30
61573;BME280;47465;43.094;12.434;2023-03-16T07:53:36;98958.59;;;8.48;55.46
61573;BME280;47465;43.094;12.434;2023-03-16T07:56:04;98967.91;;;8.72;53.07
61573;BME280;47465;43.094;12.434;2023-03-16T07:58:30;98979.47;;;8.68;53.47
61573;BME280;47465;43.094;12.434;2023-03-16T08:00:57;98973.16;;;8.75;53.46
61573;BME280;47465;43.094;12.434;2023-03-16T08:03:24;98968.47;;;8.91;53.82
61573;BME280;47465;43.094;12.434;2023-03-16T08:05:51;98961.41;;;8.92;51.66
61573;BME280;47465;43.094;12.434;2023-03-16T08:08:17;98962.91;;;9.07;51.44
61573;BME280;47465;43.094;12.434;2023-03-16T08:10:46;98974.59;;;8.96;49.78
61573;BME280;47465;43.094;12.434;2023-03-16T08:13:13;98993.75;;;9.11;52.05
61573;BME280;47465;43.094;12.434;2023-03-16T08:15:39;98982.53;;;8.96;51.37
61573;BME280;47465;43.094;12.434;2023-03-16T08:18:06;98996.88;;;9.34;50.86
61573;BME280;47465;43.094;12.434;2023-03-16T08:20:33;98992.53;;;9.30;49.29
61573;BME280;47465;43.094;12.434;2023-03-16T08:22:58;99008.16;;;9.47;47.62
61573;BME280;47465;43.094;12.434;2023-03-16T08:25:24;98983.81;;;9.23;47.08
61573;BME280;47465;43.094;12.434;2023-03-16T08:27:51;98989.44;;;9.55;48.79
61573;BME280;47465;43.094;12.434;2023-03-16T08:30:19;99021.59;;;9.84;44.87
61573;BME280;47465;43.094;12.434;2023-03-16T08:32:47;99005.38;;;9.98;45.07
61573;BME280;47465;43.094;12.434;2023-03-16T08:35:14;98996.31;;;10.08;45.83
61573;BME280;47465;43.094;12.434;2023-03-16T08:37:41;99009.44;;;10.15;43.74
61573;BME280;47465;43.094;12.434;2023-03-16T08:40:08;98987.44;;;10.08;44.54
61573;BME280;47465;43.094;12.434;2023-03-16T08:42:35;98998.66;;;10.22;44.34
61573;BME280;47465;43.094;12.434;2023-03-16T08:45:01;98995.06;;;10.23;42.71
61573;BME280;47465;43.094;12.434;2023-03-16T08:47:42;99022.91;;;10.49;43.21
61573;BME280;47465;43.094;12.434;2023-03-16T08:50:09;99022.59;;;10.22;43.09
61573;BME280;47465;43.094;12.434;2023-03-16T08:52:40;99010.06;;;10.29;43.83
61573;BME280;47465;43.094;12.434;2023-03-16T08:55:07;99010.41;;;10.54;45.72
61573;BME280;47465;43.094;12.434;2023-03-16T08:57:36;99022.25;;;10.39;44.11
61573;BME280;47465;43.094;12.434;2023-03-16T09:00:05;99025.25;;;10.63;40.52
61573;BME280;47465;43.094;12.434;2023-03-16T09:02:37;99028.41;;;10.80;44.24
61573;BME280;47465;43.094;12.434;2023-03-16T09:05:07;99047.28;;;11.05;42.21
61573;BME280;47465;43.094;12.434;2023-03-16T09:07:34;99051.72;;;11.06;43.41
61573;BME280;47465;43.094;12.434;2023-03-16T09:10:00;99019.28;;;11.25;44.78
61573;BME280;47465;43.094;12.434;2023-03-16T09:12:27;99059.28;;;11.23;39.94
61573;BME280;47465;43.094;12.434;2023-03-16T09:14:53;99030.28;;;11.13;40.64
61573;BME280;47465;43.094;12.434;2023-03-16T09:17:19;99059.53;;;11.47;41.58
61573;BME280;47465;43.094;12.434;2023-03-16T09:19:47;99046.75;;;11.61;40.60
61573;BME280;47465;43.094;12.434;2023-03-16T09:22:15;99063.06;;;11.82;39.51
61573;BME280;47465;43.094;12.434;2023-03-16T09:24:41;99031.28;;;11.76;39.51
61573;BME280;47465;43.094;12.434;2023-03-16T09:27:07;99049.88;;;11.77;35.79
61573;BME280;47465;43.094;12.434;2023-03-16T09:29:33;99033.53;;;11.58;34.04
61573;BME280;47465;43.094;12.434;2023-03-16T09:31:59;99027.13;;;11.65;35.57
61573;BME280;47465;43.094;12.434;2023-03-16T09:34:24;99048.75;;;11.86;34.59
61573;BME280;47465;43.094;12.434;2023-03-16T09:36:50;99043.53;;;11.81;35.10
61573;BME280;47465;43.094;12.434;2023-03-16T09:39:19;99050.50;;;11.87;33.48
61573;BME280;47465;43.094;12.434;2023-03-16T09:41:47;99038.06;;;11.86;34.26
61573;BME280;47465;43.094;12.434;2023-03-16T09:44:25;99035.78;;;11.74;34.70
61573;BME280;47465;43.094;12.434;2023-03-16T09:46:56;99043.06;;;12.00;36.95
61573;BME280;47465;43.094;12.434;2023-03-16T09:49:26;99038.06;;;12.19;35.79
61573;BME280;47465;43.094;12.434;2023-03-16T09:51:58;99053.22;;;11.84;35.29
61573;BME280;47465;43.094;12.434;2023-03-16T09:54:34;99058.09;;;12.02;35.73
61573;BME280;47465;43.094;12.434;2023-03-16T09:57:04;99054.16;;;11.83;35.22
61573;BME280;47465;43.094;12.434;2023-03-16T09:59:37;99053.94;;;11.58;35.76
61573;BME280;47465;43.094;12.434;2023-03-16T10:02:30;99043.94;;;11.67;34.67
61573;BME280;47465;43.094;12.434;2023-03-16T10:05:07;99065.59;;;11.88;36.04
61573;BME280;47465;43.094;12.434;2023-03-16T10:07:44;99048.88;;;11.81;37.70
61573;BME280;47465;43.094;12.434;2023-03-16T10:10:22;99063.06;;;11.82;37.79
61573;BME280;47465;43.094;12.434;2023-03-16T10:12:51;99054.31;;;11.77;38.31
61573;BME280;47465;43.094;12.434;2023-03-16T10:15:19;99061.91;;;11.94;37.15
61573;BME280;47465;43.094;12.434;2023-03-16T10:17:52;99055.53;;;11.99;36.61
61573;BME280;47465;43.094;12.434;2023-03-16T10:20:22;99040.84;;;11.83;34.88
61573;BME280;47465;43.094;12.434;2023-03-16T10:22:50;99065.53;;;11.91;36.05
61573;BME280;47465;43.094;12.434;2023-03-16T10:25:21;99058.78;;;11.76;37.03
61573;BME280;47465;43.094;12.434;2023-03-16T10:27:49;99038.16;;;11.84;36.21
61573;BME280;47465;43.094;12.434;2023-03-16T10:30:23;99029.75;;;12.00;36.94
61573;BME280;47465;43.094;12.434;2023-03-16T10:32:50;99028.78;;;12.02;35.70
61573;BME280;47465;43.094;12.434;2023-03-16T10:35:28;99071.53;;;11.99;34.63
61573;BME280;47465;43.094;12.434;2023-03-16T10:37:55;99065.13;;;12.05;35.42
61573;BME280;47465;43.094;12.434;2023-03-16T10:40:23;99057.84;;;11.44;35.68
61573;BME280;47465;43.094;12.434;2023-03-16T10:42:49;99033.44;;;11.27;36.67
61573;BME280;47465;43.094;12.434;2023-03-16T10:45:23;99044.34;;;11.18;36.35
61573;BME280;47465;43.094;12.434;2023-03-16T10:47:49;99044.34;;;11.52;37.29
61573;BME280;47465;43.094;12.434;2023-03-16T10:50:22;99029.53;;;11.40;35.12
61573;BME280;47465;43.094;12.434;2023-03-16T10:52:50;99061.59;;;11.37;36.41
61573;BME280;47465;43.094;12.434;2023-03-16T10:55:20;99073.06;;;11.74;38.36
61573;BME280;47465;43.094;12.434;2023-03-16T10:57:50;99077.22;;;11.84;36.19
61573;BME280;47465;43.094;12.434;2023-03-16T11:00:25;99080.56;;;11.58;35.11
61573;BME280;47465;43.094;12.434;2023-03-16T11:02:52;99087.22;;;11.76;35.04
61573;BME280;47465;43.094;12.434;2023-03-16T11:05:27;99075.88;;;11.69;34.77
61573;BME280;47465;43.094;12.434;2023-03-16T11:07:58;99067.63;;;11.44;36.02
61573;BME280;47465;43.094;12.434;2023-03-16T11:10:29;99059.63;;;11.45;35.08
61573;BME280;47465;43.094;12.434;2023-03-16T11:13:10;99077.09;;;11.21;35.35
61573;BME280;47465;43.094;12.434;2023-03-16T11:15:41;99069.13;;;11.20;35.06
61573;BME280;47465;43.094;12.434;2023-03-16T11:18:26;99053.47;;;11.42;35.75
61573;BME280;47465;43.094;12.434;2023-03-16T11:20:54;99066.78;;;11.42;34.96
61573;BME280;47465;43.094;12.434;2023-03-16T11:23:26;99091.78;;;11.36;34.85
61573;BME280;47465;43.094;12.434;2023-03-16T11:25:59;99072.97;;;11.44;36.32
61573;BME280;47465;43.094;12.434;2023-03-16T11:28:34;99084.69;;;11.37;35.86
61573;BME280;47465;43.094;12.434;2023-03-16T11:31:08;99078.31;;;11.42;35.99
61573;BME280;47465;43.094;12.434;2023-03-16T11:33:37;99070.31;;;11.42;36.12
61573;BME280;47465;43.094;12.434;2023-03-16T11:36:13;99093.97;;;11.56;37.87
61573;BME280;47465;43.094;12.434;2023-03-16T11:38:45;99073.13;;;11.36;37.65
61573;BME280;47465;43.094;12.434;2023-03-16T11:41:24;99059.66;;;11.44;36.79
61573;BME280;47465;43.094;12.434;2023-03-16T11:43:56;99080.00;;;11.46;38.36
61573;BME280;47465;43.094;12.434;2023-03-16T11:46:27;99061.59;;;11.37;37.64
61573;BME280;47465;43.094;12.434;2023-03-16T11:49:12;99090.91;;;11.36;38.54
61573;BME280;47465;43.094;12.434;2023-03-16T11:51:43;99057.28;;;11.31;38.86
61573;BME280;47465;43.094;12.434;2023-03-16T11:54:29;99085.78;;;11.62;38.78
61573;BME280;47465;43.094;12.434;2023-03-16T11:57:03;99044.28;;;11.54;39.08
61573;BME280;47465;43.094;12.434;2023-03-16T11:59:55;99056.28;;;11.70;37.98
61573;BME280;47465;43.094;12.434;2023-03-16T12:02:38;99069.63;;;11.68;37.44
61573;BME280;47465;43.094;12.434;2023-03-16T12:05:46;99078.47;;;11.70;38.19
61573;BME280;47465;43.094;12.434;2023-03-16T12:08:27;99080.63;;;11.56;38.75
61573;BME280;47465;43.094;12.434;2023-03-16T12:10:57;99073.19;;;11.69;38.75
61573;BME280;47465;43.094;12.434;2023-03-16T12:13:33;99055.34;;;11.38;39.17
61573;BME280;47465;43.094;12.434;2023-03-16T12:16:09;99076.72;;;11.69;39.71
61573;BME280;47465;43.094;12.434;2023-03-16T12:18:44;99048.84;;;11.50;39.18
61573;BME280;47465;43.094;12.434;2023-03-16T12:21:14;99058.16;;;11.66;40.08
61573;BME280;47465;43.094;12.434;2023-03-16T12:23:51;99061.31;;;11.81;38.58
61573;BME280;47465;43.094;12.434;2023-03-16T12:26:20;99035.16;;;11.62;38.95
61573;BME280;47465;43.094;12.434;2023-03-16T12:28:49;99030.59;;;11.69;38.79
61573;BME280;47465;43.094;12.434;2023-03-16T12:31:19;99069.44;;;11.76;39.50
61573;BME280;47465;43.094;12.434;2023-03-16T12:33:55;99067.81;;;11.70;38.90
61573;BME280;47465;43.094;12.434;2023-03-16T12:36:52;99028.56;;;11.77;38.84
61573;BME280;47465;43.094;12.434;2023-03-16T12:39:34;99041.66;;;11.86;40.47
61573;BME280;47465;43.094;12.434;2023-03-16T12:42:18;99028.81;;;11.68;39.24
61573;BME280;47465;43.094;12.434;2023-03-16T12:44:53;99037.53;;;11.73;39.91
61573;BME280;47465;43.094;12.434;2023-03-16T12:47:27;99029.19;;;11.87;38.63
61573;BME280;47465;43.094;12.434;2023-03-16T12:50:03;99017.66;;;11.86;38.48
61573;BME280;47465;43.094;12.434;2023-03-16T12:52:38;99042.94;;;12.04;39.40
61573;BME280;47465;43.094;12.434;2023-03-16T12:55:07;99026.53;;;11.87;39.76
61573;BME280;47465;43.094;12.434;2023-03-16T12:57:38;99040.28;;;12.04;39.82
61573;BME280;47465;43.094;12.434;2023-03-16T13:00:06;99027.91;;;12.02;40.56
61573;BME280;47465;43.094;12.434;2023-03-16T13:02:37;99037.56;;;12.06;40.36
61573;BME280;47465;43.094;12.434;2023-03-16T13:05:08;99028.44;;;12.15;39.51
61573;BME280;47465;43.094;12.434;2023-03-16T13:07:35;99030.72;;;11.97;38.60
61573;BME280;47465;43.094;12.434;2023-03-16T13:10:07;99047.75;;;11.91;38.57